Time;durP1;ratioP1;P1;durP2;ratioP2;P2;SDS_P1;SDS_P2;PMS_P1;PMS_P2;Temp;Humidity;BMP_temperature;BMP_pressure;BME280_temperature;BME280_humidity;BME280_pressure;Samples;Min_cycle;Max_cycle;Signal;HPM_P1;HPM_P2
2023/03/04 00:01:07;;;;;;;25.50;2.65;;;;;;;;;;4899838;29;20404;-72
2023/03/04 00:03:33;;;;;;;17.13;2.72;;;;;;;;;;4899668;29;20131;-72
2023/03/04 00:05:59;;;;;;;24.90;3.25;;;;;;;;;;4884148;29;20055;-72
2023/03/04 00:08:25;;;;;;;15.68;3.08;;;;;;;;;;4900495;29;20052;-72
2023/03/04 00:10:51;;;;;;;21.45;2.72;;;;;;;;;;4883865;29;20124;-72
2023/03/04 00:13:19;;;;;;;22.00;3.22;;;;;;;;;;4902051;29;20040;-72
2023/03/04 00:15:45;;;;;;;19.83;2.85;;;;;;;;;;4902726;29;20342;-72
2023/03/04 00:18:11;;;;;;;14.50;3.03;;;;;;;;;;4889865;29;20059;-72
2023/03/04 00:20:37;;;;;;;17.92;3.63;;;;;;;;;;4900298;29;20040;-72
2023/03/04 00:23:03;;;;;;;13.70;2.65;;;;;;;;;;4899199;29;20116;-72
2023/03/04 00:25:29;;;;;;;13.27;2.10;;;;;;;;;;4899315;29;20047;-72
2023/03/04 00:27:57;;;;;;;17.40;2.78;;;;;;;;;;4883558;29;20048;-72
2023/03/04 00:30:23;;;;;;;23.77;3.08;;;;;;;;;;4899088;29;20124;-73
2023/03/04 00:32:49;;;;;;;15.05;2.10;;;;;;;;;;4899068;29;20507;-72
2023/03/04 00:35:16;;;;;;;19.33;2.38;;;;;;;;;;4900691;29;20401;-72
2023/03/04 00:37:42;;;;;;;26.35;2.47;;;;;;;;;;4899147;29;20041;-72
2023/03/04 00:40:09;;;;;;;18.30;2.22;;;;;;;;;;4898947;29;20045;-72
2023/03/04 00:42:35;;;;;;;12.85;2.17;;;;;;;;;;4898736;29;20132;-72
2023/03/04 00:45:01;;;;;;;14.63;2.63;;;;;;;;;;4883499;29;20405;-72
2023/03/04 00:47:27;;;;;;;10.18;2.13;;;;;;;;;;4882993;29;20087;-72
2023/03/04 00:49:53;;;;;;;15.80;2.50;;;;;;;;;;4882984;29;20083;-72
2023/03/04 00:52:19;;;;;;;15.27;1.80;;;;;;;;;;4898620;29;20041;-72
2023/03/04 00:54:45;;;;;;;15.65;2.53;;;;;;;;;;4901986;29;20156;-72
2023/03/04 00:57:11;;;;;;;13.25;2.20;;;;;;;;;;4885966;29;20051;-72
2023/03/04 00:59:37;;;;;;;14.10;2.38;;;;;;;;;;4901505;29;20044;-72
2023/03/04 01:02:03;;;;;;;17.23;2.72;;;;;;;;;;4901493;29;20127;-72
2023/03/04 01:04:29;;;;;;;19.58;2.75;;;;;;;;;;4901475;29;20063;-72
2023/03/04 01:06:55;;;;;;;16.55;2.67;;;;;;;;;;4878217;29;20044;-72
2023/03/04 01:09:21;;;;;;;18.88;3.08;;;;;;;;;;4901547;29;20059;-72
2023/03/04 01:11:47;;;;;;;15.20;2.65;;;;;;;;;;4897616;29;20040;-72
2023/03/04 01:14:14;;;;;;;25.67;3.58;;;;;;;;;;4898076;29;20037;-72
2023/03/04 01:16:40;;;;;;;15.35;3.03;;;;;;;;;;4898345;29;20127;-73
2023/03/04 01:19:06;;;;;;;14.10;3.13;;;;;;;;;;4882594;29;20051;-73
2023/03/04 01:21:32;;;;;;;20.52;2.53;;;;;;;;;;4898016;29;20060;-72
2023/03/04 01:23:58;;;;;;;17.65;2.40;;;;;;;;;;4885628;29;20044;-73
2023/03/04 01:26:24;;;;;;;20.77;3.53;;;;;;;;;;4885898;29;20104;-72
2023/03/04 01:28:50;;;;;;;24.67;3.55;;;;;;;;;;4885674;29;20050;-72
2023/03/04 01:31:16;;;;;;;16.85;3.38;;;;;;;;;;4901208;29;20040;-72
2023/03/04 01:33:42;;;;;;;15.73;2.25;;;;;;;;;;4898445;29;20059;-72
2023/03/04 01:36:08;;;;;;;17.67;2.60;;;;;;;;;;4897982;29;20052;-72
2023/03/04 01:38:34;;;;;;;15.20;2.67;;;;;;;;;;4899394;29;20449;-72
2023/03/04 01:41:00;;;;;;;18.95;3.20;;;;;;;;;;4867141;29;20084;-72
2023/03/04 01:43:28;;;;;;;21.45;2.83;;;;;;;;;;4886766;29;20119;-72
2023/03/04 01:45:54;;;;;;;14.45;2.60;;;;;;;;;;4901204;29;20130;-73
2023/03/04 01:48:24;;;;;;;19.90;3.35;;;;;;;;;;4900634;29;20044;-72
2023/03/04 01:50:50;;;;;;;23.48;3.13;;;;;;;;;;4900592;29;20044;-72
2023/03/04 01:53:21;;;;;;;14.57;2.63;;;;;;;;;;4900559;29;20044;-73
2023/03/04 01:55:48;;;;;;;17.33;2.35;;;;;;;;;;4900401;29;20044;-72
2023/03/04 01:58:14;;;;;;;29.63;4.45;;;;;;;;;;4900731;29;20076;-72
2023/03/04 02:00:40;;;;;;;19.35;2.35;;;;;;;;;;4900532;29;20115;-72
2023/03/04 02:03:11;;;;;;;19.20;3.53;;;;;;;;;;4899690;29;20536;-68
2023/03/04 02:05:39;;;;;;;16.63;2.75;;;;;;;;;;4900744;29;20508;-69
2023/03/04 02:08:05;;;;;;;17.42;2.90;;;;;;;;;;4900721;29;20051;-69
2023/03/04 02:10:31;;;;;;;18.90;3.53;;;;;;;;;;4900536;29;20091;-69
2023/03/04 02:12:58;;;;;;;20.92;2.80;;;;;;;;;;4900240;29;20048;-69
2023/03/04 02:15:24;;;;;;;30.42;3.38;;;;;;;;;;4885168;29;20075;-69
2023/03/04 02:17:50;;;;;;;14.98;2.55;;;;;;;;;;4881684;29;20568;-72
2023/03/04 02:20:35;;;;;;;14.95;2.80;;;;;;;;;;4900233;29;20059;-69
2023/03/04 02:23:13;;;;;;;16.58;3.13;;;;;;;;;;4899928;29;20461;-68
2023/03/04 02:26:03;;;;;;;20.15;3.17;;;;;;;;;;4899985;29;20054;-68
2023/03/04 02:28:29;;;;;;;22.52;2.90;;;;;;;;;;4888297;29;20196;-69
2023/03/04 02:30:55;;;;;;;15.55;3.50;;;;;;;;;;4900072;29;20047;-69
2023/03/04 02:33:21;;;;;;;22.05;2.33;;;;;;;;;;4884382;29;20046;-69
2023/03/04 02:35:47;;;;;;;15.38;2.60;;;;;;;;;;4884148;29;20051;-69
2023/03/04 02:38:13;;;;;;;19.58;3.53;;;;;;;;;;4900037;29;20044;-68
2023/03/04 02:40:41;;;;;;;21.27;2.65;;;;;;;;;;4899967;29;20051;-69
2023/03/04 02:43:09;;;;;;;16.25;2.38;;;;;;;;;;4899827;29;20040;-69
2023/03/04 02:45:37;;;;;;;17.45;2.20;;;;;;;;;;4884228;29;20044;-69
2023/03/04 02:48:03;;;;;;;23.98;2.95;;;;;;;;;;4899725;29;20040;-69
2023/03/04 02:50:32;;;;;;;17.15;2.65;;;;;;;;;;4877675;29;20434;-69
2023/03/04 02:52:58;;;;;;;29.70;2.88;;;;;;;;;;4881177;29;20493;-68
2023/03/04 02:55:25;;;;;;;14.20;2.47;;;;;;;;;;4896666;29;20037;-68
2023/03/04 02:57:51;;;;;;;15.32;2.50;;;;;;;;;;4896829;29;20490;-69
2023/03/04 03:00:17;;;;;;;20.70;2.90;;;;;;;;;;4896410;29;20076;-69
2023/03/04 03:02:43;;;;;;;18.75;3.92;;;;;;;;;;4881262;29;20040;-71
2023/03/04 03:05:09;;;;;;;25.02;3.88;;;;;;;;;;4896520;29;20076;-72
2023/03/04 03:07:35;;;;;;;11.13;3.08;;;;;;;;;;4898438;29;20052;-73
2023/03/04 03:10:01;;;;;;;13.65;2.10;;;;;;;;;;4885693;29;20047;-73
2023/03/04 03:12:27;;;;;;;18.60;2.35;;;;;;;;;;4865880;29;20044;-72
2023/03/04 03:14:53;;;;;;;12.05;2.08;;;;;;;;;;4868351;29;20047;-73
2023/03/04 03:17:19;;;;;;;19.65;2.75;;;;;;;;;;4900268;29;20128;-73
2023/03/04 03:19:45;;;;;;;19.00;2.50;;;;;;;;;;4900313;29;20045;-72
2023/03/04 03:22:11;;;;;;;20.45;2.15;;;;;;;;;;4899969;29;20065;-72
2023/03/04 03:24:37;;;;;;;13.23;2.13;;;;;;;;;;4900127;29;20048;-73
2023/03/04 03:27:04;;;;;;;8.98;2.25;;;;;;;;;;4900106;29;20045;-73
2023/03/04 03:29:30;;;;;;;16.50;2.10;;;;;;;;;;4900076;29;20045;-72
2023/03/04 03:31:56;;;;;;;11.35;1.98;;;;;;;;;;4886893;29;20479;-72
2023/03/04 03:34:22;;;;;;;13.35;2.65;;;;;;;;;;4902402;29;20078;-73
2023/03/04 03:36:48;;;;;;;17.67;2.63;;;;;;;;;;4902822;29;20070;-72
2023/03/04 03:39:14;;;;;;;13.60;2.78;;;;;;;;;;4895933;29;20396;-73
2023/03/04 03:41:41;;;;;;;11.10;2.67;;;;;;;;;;4894537;29;20131;-72
2023/03/04 03:44:07;;;;;;;12.57;1.95;;;;;;;;;;4882940;29;20079;-72
2023/03/04 03:46:34;;;;;;;15.00;1.88;;;;;;;;;;4884474;29;20384;-72
2023/03/04 03:49:00;;;;;;;7.32;1.67;;;;;;;;;;4884323;29;20484;-72
2023/03/04 03:51:26;;;;;;;9.50;2.05;;;;;;;;;;4899925;29;20083;-72
2023/03/04 03:53:52;;;;;;;6.82;1.52;;;;;;;;;;4884187;29;20096;-72
2023/03/04 03:56:18;;;;;;;8.80;1.58;;;;;;;;;;4899597;29;20043;-72
2023/03/04 03:58:44;;;;;;;8.82;2.42;;;;;;;;;;4902572;29;20597;-72
2023/03/04 04:01:10;;;;;;;7.22;1.80;;;;;;;;;;4902449;29;20493;-72
2023/03/04 04:03:36;;;;;;;11.70;2.00;;;;;;;;;;4876549;29;20523;-72
2023/03/04 04:06:03;;;;;;;12.43;2.28;;;;;;;;;;4902161;29;20044;-72
2023/03/04 04:08:29;;;;;;;8.40;2.00;;;;;;;;;;4871687;29;20048;-72
2023/03/04 04:10:55;;;;;;;13.98;1.95;;;;;;;;;;4887107;29;20493;-72
2023/03/04 04:13:21;;;;;;;13.95;2.55;;;;;;;;;;4886472;29;20512;-72
2023/03/04 04:15:47;;;;;;;13.98;1.95;;;;;;;;;;4889204;29;20396;-72
2023/03/04 04:18:13;;;;;;;12.20;1.88;;;;;;;;;;4899269;29;20056;-69
2023/03/04 04:20:39;;;;;;;6.10;1.30;;;;;;;;;;4899337;29;20112;-69
2023/03/04 04:23:05;;;;;;;15.32;1.63;;;;;;;;;;4902136;29;20064;-68
2023/03/04 04:25:31;;;;;;;8.30;1.90;;;;;;;;;;4899124;29;20088;-68
2023/03/04 04:27:58;;;;;;;7.93;1.63;;;;;;;;;;4883464;29;20049;-68
2023/03/04 04:30:24;;;;;;;15.18;1.90;;;;;;;;;;4899328;29;20104;-68
2023/03/04 04:32:50;;;;;;;15.27;1.75;;;;;;;;;;4900746;29;20524;-68
2023/03/04 04:35:16;;;;;;;12.60;1.90;;;;;;;;;;4901972;29;20044;-68
2023/03/04 04:37:42;;;;;;;8.02;1.60;;;;;;;;;;4902128;29;20071;-68
2023/03/04 04:40:09;;;;;;;9.38;1.67;;;;;;;;;;4902437;29;20048;-68
2023/03/04 04:42:35;;;;;;;12.48;2.00;;;;;;;;;;4896124;29;20493;-68
2023/03/04 04:45:01;;;;;;;14.18;1.67;;;;;;;;;;4898883;29;20049;-68
2023/03/04 04:47:27;;;;;;;8.82;2.42;;;;;;;;;;4898696;29;20060;-68
2023/03/04 04:49:53;;;;;;;9.10;2.03;;;;;;;;;;4898756;29;20055;-68
2023/03/04 04:52:19;;;;;;;11.13;2.25;;;;;;;;;;4883166;29;20374;-68
2023/03/04 04:54:45;;;;;;;9.48;2.03;;;;;;;;;;4898827;29;20398;-69
2023/03/04 04:57:11;;;;;;;6.82;1.42;;;;;;;;;;4898495;29;20072;-68
2023/03/04 04:59:38;;;;;;;13.30;1.95;;;;;;;;;;4901662;29;20047;-68
2023/03/04 05:02:04;;;;;;;12.82;1.63;;;;;;;;;;4901782;29;20051;-69
2023/03/04 05:04:30;;;;;;;12.77;2.00;;;;;;;;;;4901114;29;20048;-68
2023/03/04 05:06:56;;;;;;;11.32;1.98;;;;;;;;;;4901857;29;20040;-68
2023/03/04 05:09:22;;;;;;;16.77;2.17;;;;;;;;;;4900996;29;20053;-69
2023/03/04 05:11:48;;;;;;;12.10;2.17;;;;;;;;;;4901748;29;20071;-68
2023/03/04 05:14:14;;;;;;;13.65;1.92;;;;;;;;;;4901295;29;20048;-68
2023/03/04 05:16:40;;;;;;;16.55;2.05;;;;;;;;;;4885984;29;20036;-68
2023/03/04 05:19:06;;;;;;;9.95;1.77;;;;;;;;;;4888578;29;20108;-68
2023/03/04 05:21:32;;;;;;;12.15;2.00;;;;;;;;;;4882492;29;20111;-68
2023/03/04 05:23:58;;;;;;;13.23;1.98;;;;;;;;;;4883623;29;20511;-69
2023/03/04 05:26:25;;;;;;;12.40;1.55;;;;;;;;;;4899578;29;20441;-68
2023/03/04 05:28:51;;;;;;;16.40;2.72;;;;;;;;;;4884172;29;20036;-68
2023/03/04 05:31:17;;;;;;;17.90;2.20;;;;;;;;;;4886443;29;20073;-68
2023/03/04 05:33:43;;;;;;;16.02;1.98;;;;;;;;;;4883501;29;20116;-68
2023/03/04 05:36:09;;;;;;;9.75;1.85;;;;;;;;;;4882002;29;20048;-71
2023/03/04 05:38:35;;;;;;;14.82;2.28;;;;;;;;;;4897488;29;20180;-72
2023/03/04 05:41:03;;;;;;;9.88;2.63;;;;;;;;;;4897880;29;20488;-72
2023/03/04 05:43:29;;;;;;;14.45;2.33;;;;;;;;;;4897418;29;20127;-72
2023/03/04 05:45:55;;;;;;;24.40;2.47;;;;;;;;;;4898091;29;20052;-72
2023/03/04 05:48:21;;;;;;;19.55;2.05;;;;;;;;;;4897805;29;20722;-68
2023/03/04 05:50:52;;;;;;;15.20;2.15;;;;;;;;;;4881765;29;20044;-73
2023/03/04 05:53:18;;;;;;;14.20;2.15;;;;;;;;;;4898020;29;20048;-72
2023/03/04 05:55:47;;;;;;;10.40;2.00;;;;;;;;;;4898440;29;20488;-72
2023/03/04 05:58:14;;;;;;;23.13;2.50;;;;;;;;;;4889893;29;20048;-72
2023/03/04 06:00:40;;;;;;;8.88;1.80;;;;;;;;;;4893571;29;20043;-72
2023/03/04 06:03:06;;;;;;;16.27;2.10;;;;;;;;;;4882036;29;20055;-72
2023/03/04 06:05:32;;;;;;;9.15;2.13;;;;;;;;;;4881841;29;20044;-72
2023/03/04 06:07:58;;;;;;;8.70;1.58;;;;;;;;;;4881725;29;20048;-72
2023/03/04 06:10:24;;;;;;;13.45;2.22;;;;;;;;;;4882690;29;20127;-72
2023/03/04 06:12:50;;;;;;;8.75;1.63;;;;;;;;;;4884539;29;20041;-72
2023/03/04 06:15:16;;;;;;;7.97;1.88;;;;;;;;;;4890623;29;20047;-72
2023/03/04 06:17:42;;;;;;;10.57;1.67;;;;;;;;;;4866612;29;20059;-72
2023/03/04 06:20:09;;;;;;;8.27;1.90;;;;;;;;;;4866684;29;20053;-72
2023/03/04 06:22:35;;;;;;;11.15;2.22;;;;;;;;;;4893301;29;20060;-72
2023/03/04 06:25:01;;;;;;;15.55;2.10;;;;;;;;;;4899161;29;20048;-72
2023/03/04 06:27:28;;;;;;;8.57;1.95;;;;;;;;;;4866976;29;20496;-72
2023/03/04 06:29:54;;;;;;;18.00;2.13;;;;;;;;;;4881645;29;20060;-71
2023/03/04 06:32:20;;;;;;;10.80;2.42;;;;;;;;;;4898507;29;20061;-72
2023/03/04 06:34:46;;;;;;;8.32;1.83;;;;;;;;;;4900412;29;20051;-71
2023/03/04 06:37:12;;;;;;;8.68;1.55;;;;;;;;;;4886258;29;20044;-71
2023/03/04 06:39:38;;;;;;;13.02;2.25;;;;;;;;;;4881405;29;20099;-70
2023/03/04 06:42:04;;;;;;;6.85;1.65;;;;;;;;;;4884265;29;20044;-70
2023/03/04 06:44:30;;;;;;;7.13;1.75;;;;;;;;;;4879449;29;20033;-70
2023/03/04 06:46:56;;;;;;;12.90;1.95;;;;;;;;;;4885032;29;20068;-70
2023/03/04 06:49:22;;;;;;;9.23;1.95;;;;;;;;;;4883134;29;20040;-71
2023/03/04 06:51:48;;;;;;;8.25;1.55;;;;;;;;;;4894031;29;20051;-71
2023/03/04 06:54:15;;;;;;;7.10;2.35;;;;;;;;;;4886135;29;20072;-70
2023/03/04 06:56:41;;;;;;;14.65;2.08;;;;;;;;;;4873800;29;20045;-68
2023/03/04 06:59:07;;;;;;;14.43;2.25;;;;;;;;;;4889196;29;20377;-68
2023/03/04 07:01:34;;;;;;;10.13;2.53;;;;;;;;;;4888128;29;20450;-68
2023/03/04 07:04:00;;;;;;;8.98;2.00;;;;;;;;;;4899822;29;20056;-68
2023/03/04 07:06:28;;;;;;;14.45;2.45;;;;;;;;;;4893584;29;20131;-67
2023/03/04 07:08:54;;;;;;;13.40;1.98;;;;;;;;;;4881226;29;20044;-68
2023/03/04 07:11:21;;;;;;;19.13;2.40;;;;;;;;;;4881192;29;20489;-68
2023/03/04 07:13:47;;;;;;;24.50;3.58;;;;;;;;;;4882684;29;20056;-68
2023/03/04 07:16:14;;;;;;;8.90;2.10;;;;;;;;;;4900119;29;20062;-70
2023/03/04 07:18:40;;;;;;;19.45;2.22;;;;;;;;;;4881018;29;20056;-71
2023/03/04 07:21:07;;;;;;;7.72;1.60;;;;;;;;;;4899243;29;20583;-71
2023/03/04 07:23:34;;;;;;;4.65;1.60;;;;;;;;;;4886244;29;20064;-67
2023/03/04 07:26:00;;;;;;;7.07;1.50;;;;;;;;;;4894770;29;20048;-67
2023/03/04 07:28:27;;;;;;;6.13;1.20;;;;;;;;;;4897786;29;20041;-68
2023/03/04 07:30:53;;;;;;;4.88;1.30;;;;;;;;;;4898105;29;20124;-68
2023/03/04 07:33:19;;;;;;;10.23;1.70;;;;;;;;;;4880964;29;20044;-68
2023/03/04 07:35:45;;;;;;;11.23;1.70;;;;;;;;;;4891353;29;20052;-68
2023/03/04 07:38:11;;;;;;;8.77;1.90;;;;;;;;;;4896870;29;20055;-67
2023/03/04 07:40:37;;;;;;;8.68;2.08;;;;;;;;;;4889531;29;20100;-67
2023/03/04 07:43:03;;;;;;;15.38;2.58;;;;;;;;;;4896562;29;20048;-68
2023/03/04 07:45:29;;;;;;;12.20;3.03;;;;;;;;;;4883896;29;20091;-70
2023/03/04 07:47:57;;;;;;;17.35;2.28;;;;;;;;;;4899231;29;20036;-71
2023/03/04 07:50:23;;;;;;;21.38;2.83;;;;;;;;;;4873549;29;20044;-71
2023/03/04 07:52:52;;;;;;;16.52;2.03;;;;;;;;;;4892571;29;20040;-71
2023/03/04 07:55:18;;;;;;;20.65;3.08;;;;;;;;;;4899442;29;20043;-71
2023/03/04 07:57:47;;;;;;;15.88;2.03;;;;;;;;;;4892897;29;20040;-71
2023/03/04 08:00:15;;;;;;;19.88;2.85;;;;;;;;;;4869847;29;20152;-71
2023/03/04 08:02:41;;;;;;;14.43;1.88;;;;;;;;;;4890264;29;20076;-72
2023/03/04 08:05:08;;;;;;;15.40;2.17;;;;;;;;;;4900326;29;20074;-72
2023/03/04 08:07:36;;;;;;;14.65;1.95;;;;;;;;;;4901709;29;20048;-72
2023/03/04 08:10:05;;;;;;;8.43;2.13;;;;;;;;;;4894776;29;20075;-72
2023/03/04 08:12:31;;;;;;;11.93;1.98;;;;;;;;;;4902067;29;20377;-72
2023/03/04 08:14:57;;;;;;;8.75;1.73;;;;;;;;;;4901364;29;20497;-72
2023/03/04 08:17:23;;;;;;;12.35;2.28;;;;;;;;;;4902442;29;20051;-72
2023/03/04 08:19:49;;;;;;;14.73;2.10;;;;;;;;;;4919120;29;20039;-72
2023/03/04 08:22:15;;;;;;;7.03;1.80;;;;;;;;;;4902225;29;20040;-72
2023/03/04 08:24:41;;;;;;;10.27;1.73;;;;;;;;;;4902217;29;20064;-72
2023/03/04 08:27:07;;;;;;;14.38;2.20;;;;;;;;;;4886814;29;20505;-72
2023/03/04 08:29:34;;;;;;;19.33;2.35;;;;;;;;;;4902283;29;20044;-73
2023/03/04 08:32:00;;;;;;;19.55;3.45;;;;;;;;;;4902677;29;20123;-72
2023/03/04 08:34:27;;;;;;;14.27;2.30;;;;;;;;;;4902303;29;20044;-72
2023/03/04 08:36:53;;;;;;;22.85;2.75;;;;;;;;;;4886827;29;20458;-69
2023/03/04 08:39:19;;;;;;;27.25;4.07;;;;;;;;;;4886609;29;20044;-68
2023/03/04 08:41:46;;;;;;;25.02;3.15;;;;;;;;;;4902241;29;20047;-68
2023/03/04 08:44:13;;;;;;;25.90;3.13;;;;;;;;;;4902094;29;20052;-68
2023/03/04 08:46:40;;;;;;;25.40;3.20;;;;;;;;;;4886517;29;20444;-68
2023/03/04 08:49:06;;;;;;;29.33;3.08;;;;;;;;;;4886239;29;20048;-68
2023/03/04 08:51:34;;;;;;;34.47;3.45;;;;;;;;;;4902043;29;20056;-68
2023/03/04 08:54:00;;;;;;;30.08;3.95;;;;;;;;;;4901855;29;20048;-68
2023/03/04 08:56:27;;;;;;;19.00;3.20;;;;;;;;;;4885923;29;20097;-68
2023/03/04 08:58:53;;;;;;;30.42;2.78;;;;;;;;;;4901627;29;20048;-68
2023/03/04 09:01:19;;;;;;;22.42;2.80;;;;;;;;;;4901920;29;20048;-68
2023/03/04 09:03:45;;;;;;;28.52;3.15;;;;;;;;;;4886117;29;20386;-68
2023/03/04 09:06:13;;;;;;;36.45;4.15;;;;;;;;;;4901676;29;20514;-67
2023/03/04 09:08:40;;;;;;;32.47;3.30;;;;;;;;;;4901345;29;20059;-68
2023/03/04 09:11:06;;;;;;;34.22;4.28;;;;;;;;;;4901769;29;20075;-68
2023/03/04 09:13:33;;;;;;;24.88;3.58;;;;;;;;;;4901374;29;20075;-68
2023/03/04 09:15:59;;;;;;;28.45;4.20;;;;;;;;;;4885941;29;20076;-68
2023/03/04 09:18:26;;;;;;;23.23;3.30;;;;;;;;;;4901291;29;20052;-68
2023/03/04 09:20:52;;;;;;;20.50;2.80;;;;;;;;;;4901419;29;20076;-67
2023/03/04 09:23:18;;;;;;;30.83;4.32;;;;;;;;;;4901327;29;20095;-68
2023/03/04 09:25:46;;;;;;;21.63;2.95;;;;;;;;;;4901251;29;20570;-68
2023/03/04 09:28:12;;;;;;;27.67;3.08;;;;;;;;;;4901088;29;20063;-68
2023/03/04 09:30:39;;;;;;;24.20;3.60;;;;;;;;;;4901553;29;20369;-68
2023/03/04 09:33:05;;;;;;;24.50;4.65;;;;;;;;;;4901201;29;20131;-68
2023/03/04 09:35:31;;;;;;;27.02;3.20;;;;;;;;;;4901229;29;20040;-68
2023/03/04 09:37:58;;;;;;;27.98;3.40;;;;;;;;;;4901079;29;20058;-68
2023/03/04 09:40:27;;;;;;;27.73;4.13;;;;;;;;;;4900698;29;20145;-67
2023/03/04 09:43:04;;;;;;;18.73;2.40;;;;;;;;;;4885661;29;20040;-67
2023/03/04 09:45:36;;;;;;;18.60;2.63;;;;;;;;;;4900711;29;20048;-68
2023/03/04 09:48:03;;;;;;;19.83;3.03;;;;;;;;;;4900801;29;20048;-68
2023/03/04 09:50:31;;;;;;;14.88;2.70;;;;;;;;;;4900546;29;20125;-67
2023/03/04 09:53:13;;;;;;;24.63;2.85;;;;;;;;;;4900985;29;20428;-68
2023/03/04 09:55:45;;;;;;;21.55;3.78;;;;;;;;;;4900554;29;20067;-67
2023/03/04 09:58:30;;;;;;;16.25;2.53;;;;;;;;;;4900231;29;20099;-67
2023/03/04 10:01:08;;;;;;;23.40;3.85;;;;;;;;;;4900510;29;20131;-67
2023/03/04 10:03:37;;;;;;;20.85;2.88;;;;;;;;;;4900516;29;20052;-68
2023/03/04 10:06:09;;;;;;;25.20;4.57;;;;;;;;;;4900324;29;20127;-67
2023/03/04 10:08:38;;;;;;;11.10;3.15;;;;;;;;;;4900139;29;20044;-68
2023/03/04 10:11:09;;;;;;;15.77;2.17;;;;;;;;;;4900242;29;20044;-70
2023/03/04 10:13:38;;;;;;;14.10;1.92;;;;;;;;;;4900411;29;20131;-70
2023/03/04 10:16:06;;;;;;;4.63;1.20;;;;;;;;;;4900262;29;20087;-71
2023/03/04 10:18:35;;;;;;;7.95;1.33;;;;;;;;;;4900239;29;20044;-71
2023/03/04 10:21:05;;;;;;;11.18;1.40;;;;;;;;;;4900014;29;20106;-72
2023/03/04 10:23:31;;;;;;;8.05;1.50;;;;;;;;;;4889857;29;20060;-71
2023/03/04 10:25:59;;;;;;;5.07;1.20;;;;;;;;;;4895020;29;20036;-71
2023/03/04 10:28:26;;;;;;;8.00;1.50;;;;;;;;;;4931697;29;20047;-71
2023/03/04 10:30:55;;;;;;;5.45;1.58;;;;;;;;;;4914001;29;20089;-71
2023/03/04 10:33:22;;;;;;;6.63;1.50;;;;;;;;;;4899935;29;20047;-71
2023/03/04 10:36:08;;;;;;;9.20;1.50;;;;;;;;;;4899943;29;20040;-72
2023/03/04 10:38:35;;;;;;;5.95;1.98;;;;;;;;;;4899402;29;20378;-71
2023/03/04 10:41:11;;;;;;;13.48;2.72;;;;;;;;;;4878995;29;20045;-71
2023/03/04 10:43:37;;;;;;;11.63;1.83;;;;;;;;;;4908004;29;20056;-71
2023/03/04 10:46:03;;;;;;;8.50;1.50;;;;;;;;;;4916944;29;20047;-71
2023/03/04 10:48:30;;;;;;;8.82;1.95;;;;;;;;;;4915419;29;20122;-71
2023/03/04 10:51:18;;;;;;;18.70;2.05;;;;;;;;;;4885684;29;20050;-71
2023/03/04 10:53:45;;;;;;;15.07;2.13;;;;;;;;;;4904522;29;20397;-72
2023/03/04 10:56:30;;;;;;;18.27;2.45;;;;;;;;;;4901577;29;20523;-71
2023/03/04 10:59:15;;;;;;;18.02;2.33;;;;;;;;;;4899904;29;20099;-71
2023/03/04 11:01:41;;;;;;;19.33;3.88;;;;;;;;;;4899598;29;20044;-67
2023/03/04 11:04:17;;;;;;;13.57;2.03;;;;;;;;;;4891207;29;20116;-67
2023/03/04 11:06:43;;;;;;;8.30;2.08;;;;;;;;;;4897537;29;20080;-67
2023/03/04 11:09:20;;;;;;;23.55;2.20;;;;;;;;;;4875026;29;20059;-67
2023/03/04 11:11:46;;;;;;;17.85;3.28;;;;;;;;;;4894820;29;20092;-67
2023/03/04 11:14:34;;;;;;;13.60;2.47;;;;;;;;;;4860605;29;20045;-67
2023/03/04 11:17:01;;;;;;;15.88;3.08;;;;;;;;;;4901799;29;20048;-67
2023/03/04 11:19:38;;;;;;;31.27;2.55;;;;;;;;;;4899551;29;20076;-67
2023/03/04 11:22:05;;;;;;;21.50;3.03;;;;;;;;;;4909128;29;20067;-67
2023/03/04 11:24:33;;;;;;;17.10;3.03;;;;;;;;;;4899480;29;20089;-67
2023/03/04 11:26:59;;;;;;;21.10;3.38;;;;;;;;;;4886849;29;20052;-67
2023/03/04 11:29:40;;;;;;;20.45;3.47;;;;;;;;;;4907901;29;20099;-67
2023/03/04 11:32:06;;;;;;;23.83;3.97;;;;;;;;;;4909176;29;20052;-67
2023/03/04 11:34:38;;;;;;;19.15;2.60;;;;;;;;;;4883546;29;20040;-67
2023/03/04 11:37:07;;;;;;;17.80;2.42;;;;;;;;;;4918192;29;20048;-67
2023/03/04 11:39:49;;;;;;;20.98;3.72;;;;;;;;;;4901784;29;20056;-67
2023/03/04 11:42:34;;;;;;;27.65;3.40;;;;;;;;;;4902710;29;20059;-67
2023/03/04 11:45:00;;;;;;;25.75;4.47;;;;;;;;;;4902042;29;20087;-67
2023/03/04 11:47:41;;;;;;;21.08;3.33;;;;;;;;;;4887632;29;20075;-67
2023/03/04 11:50:12;;;;;;;21.45;2.90;;;;;;;;;;4887287;29;20044;-67
2023/03/04 11:52:53;;;;;;;24.23;2.88;;;;;;;;;;4901810;29;20036;-67
2023/03/04 11:55:38;;;;;;;18.85;3.20;;;;;;;;;;4902494;29;20059;-67
2023/03/04 11:58:10;;;;;;;16.20;2.30;;;;;;;;;;4918428;29;20051;-67
2023/03/04 12:00:54;;;;;;;27.95;3.85;;;;;;;;;;4902751;29;20135;-67
2023/03/04 12:03:40;;;;;;;20.20;2.72;;;;;;;;;;4885908;29;20048;-67
2023/03/04 12:06:25;;;;;;;15.35;2.65;;;;;;;;;;4896018;29;20056;-67
2023/03/04 12:08:54;;;;;;;17.40;2.70;;;;;;;;;;4919738;29;20044;-67
2023/03/04 12:11:20;;;;;;;21.17;3.20;;;;;;;;;;4902628;29;20044;-67
2023/03/04 12:13:47;;;;;;;18.77;3.78;;;;;;;;;;4902542;29;20036;-67
2023/03/04 12:16:31;;;;;;;26.02;3.28;;;;;;;;;;4902632;29;20044;-67
2023/03/04 12:19:00;;;;;;;24.77;2.78;;;;;;;;;;4902616;29;20048;-67
2023/03/04 12:21:45;;;;;;;19.60;3.00;;;;;;;;;;4898293;29;20350;-67
2023/03/04 12:24:18;;;;;;;23.75;3.72;;;;;;;;;;4887703;29;20060;-67
2023/03/04 12:27:04;;;;;;;20.30;2.97;;;;;;;;;;4891966;29;20441;-67
2023/03/04 12:29:30;;;;;;;22.98;2.40;;;;;;;;;;4852244;29;20052;-67
2023/03/04 12:32:16;;;;;;;22.27;3.80;;;;;;;;;;4890611;29;20040;-66
2023/03/04 12:35:01;;;;;;;25.80;2.97;;;;;;;;;;4855024;29;20056;-66
2023/03/04 12:37:57;;;;;;;22.98;2.92;;;7.60;99.90;;;;;;4891350;29;20052;-67
2023/03/04 12:40:26;;;;;;;33.67;3.33;;;;;;;;;;4883435;29;20048;-67
2023/03/04 12:43:16;;;;;;;19.63;3.53;;;;;;;;;;4894908;29;20161;-67
2023/03/04 12:45:54;;;;;;;19.27;2.63;;;;;;;;;;4897289;29;20055;-67
2023/03/04 12:48:32;;;;;;;26.58;3.75;;;;;;;;;;4897696;29;20079;-66
2023/03/04 12:51:17;;;;;;;23.48;3.72;;;;;;;;;;4893110;29;20492;-66
2023/03/04 12:54:00;;;;;;;15.43;2.72;;;;;;;;;;4885311;29;20044;-66
2023/03/04 12:56:31;;;;;;;31.83;3.55;;;;;;;;;;4899779;29;20055;-69
2023/03/04 12:58:57;;;;;;;21.88;2.60;;;;;;;;;;4901401;29;20086;-66
2023/03/04 13:01:23;;;;;;;17.42;2.80;;;;;;;;;;4900489;29;20131;-66
2023/03/04 13:04:13;;;;;;;19.25;2.83;;;8.20;99.90;;;;;;4896432;29;20075;-66
2023/03/04 13:06:58;;;;;;;16.42;2.22;;;;;;;;;;4918074;29;20104;-66
2023/03/04 13:09:31;;;;;;;14.88;2.67;;;;;;;;;;4901178;29;20095;-66
2023/03/04 13:12:17;;;;;;;24.80;3.75;;;;;;;;;;4868237;29;20528;-65
2023/03/04 13:15:02;;;;;;;23.25;3.85;;;;;;;;;;4899411;29;20048;-66
2023/03/04 13:17:39;;;;;;;32.78;3.22;;;;;;;;;;4901430;29;20052;-66
2023/03/04 13:20:23;;;;;;;28.05;5.20;;;;;;;;;;4892361;29;20122;-66
2023/03/04 13:22:52;;;;;;;18.38;2.63;;;;;;;;;;4901329;29;20052;-68
2023/03/04 13:25:27;;;;;;;17.95;2.90;;;;;;;;;;4891443;29;20057;-66
2023/03/04 13:28:01;;;;;;;20.50;3.20;;;;;;;;;;4882407;29;20077;-66
2023/03/04 13:30:47;;;;;;;21.58;3.17;;;;;;;;;;4900941;29;20052;-66
2023/03/04 13:33:13;;;;;;;14.80;2.80;;;;;;;;;;4885394;29;20052;-66
2023/03/04 13:35:46;;;;;;;12.02;2.30;;;;;;;;;;4897860;29;20090;-66
2023/03/04 13:38:21;;;;;;;15.55;3.30;;;;;;;;;;4898060;29;20080;-66
2023/03/04 13:41:15;;;;;;;11.45;2.38;;;7.80;99.90;;;;;;4892316;29;20052;-66
2023/03/04 13:43:42;;;;;;;14.10;2.60;;;;;;;;;;4887775;29;20065;-66
2023/03/04 13:46:17;;;;;;;14.88;3.38;;;;;;;;;;4910138;29;20097;-66
2023/03/04 13:48:49;;;;;;;20.52;2.80;;;;;;;;;;4884121;29;20048;-66
2023/03/04 13:51:21;;;;;;;14.65;2.22;;;;;;;;;;4875850;29;20040;-66
2023/03/04 13:53:54;;;;;;;16.27;2.42;;;;;;;;;;4915842;29;20400;-66
2023/03/04 13:56:31;;;;;;;24.33;2.83;;;;;;;;;;4890242;29;20071;-66
2023/03/04 13:59:15;;;;;;;23.55;4.45;;;;;;;;;;4879341;29;20504;-66
2023/03/04 14:01:56;;;;;;;17.33;3.05;;;;;;;;;;4911487;29;20103;-67
2023/03/04 14:04:24;;;;;;;14.38;3.53;;;;;;;;;;4892981;29;20083;-67
2023/03/04 14:06:51;;;;;;;21.70;3.58;;;;;;;;;;4891215;29;20079;-67
2023/03/04 14:09:24;;;;;;;17.92;3.08;;;;;;;;;;4886244;29;20040;-67
2023/03/04 14:11:52;;;;;;;18.05;2.60;;;;;;;;;;4891545;29;20040;-69
2023/03/04 14:14:20;;;;;;;21.63;3.00;;;;;;;;;;4882654;29;20051;-67
2023/03/04 14:17:06;;;;;;;12.82;2.60;;;;;;;;;;4895739;29;20511;-66
2023/03/04 14:19:37;;;;;;;21.05;2.95;;;;;;;;;;4901300;29;20131;-66
2023/03/04 14:22:18;;;;;;;15.30;2.58;;;;;;;;;;4889815;29;20048;-67
2023/03/04 14:25:00;;;;;;;12.02;2.05;;;;;;;;;;4897858;29;20071;-66
2023/03/04 14:27:27;;;;;;;17.30;2.75;;;;;;;;;;4880145;29;20051;-69
2023/03/04 14:29:58;;;;;;;20.77;2.63;;;;;;;;;;4894036;29;20052;-66
2023/03/04 14:32:24;;;;;;;17.70;3.25;;;;;;;;;;4885042;29;20041;-67
2023/03/04 14:34:51;;;;;;;13.85;2.42;;;;;;;;;;4886791;29;20045;-66
2023/03/04 14:37:40;;;;;;;28.08;2.60;;;;;;;;;;4891998;29;20047;-67
2023/03/04 14:40:07;;;;;;;20.77;2.88;;;;;;;;;;4880967;29;20050;-67
2023/03/04 14:42:39;;;;;;;23.25;3.13;;;;;;;;;;4891029;29;20167;-67